Time,TemperatureF,DewpointF,PressureIn,WindDirection,WindDirectionDegrees,WindSpeedMPH,WindSpeedGustMPH,Humidity,HourlyPrecipIn,Conditions,Clouds,dailyrainin,SoftwareType,DateUTC
2013-02-20 00:00:00,32.6,21.4,29.80,WNW,294,16.0,18.0,63,0.00,,CLR,0.24,VWS V14.01,2013-02-20 05:00:00,
2013-02-20 00:05:00,32.5,20.9,29.80,WNW,300,9.0,9.0,62,0.00,,BKN060,0.00,VWS V14.01,2013-02-20 05:05:00,
2013-02-20 00:10:00,32.4,21.2,29.80,NW,314,11.0,14.0,63,0.00,,BKN060,0.00,VWS V14.01,2013-02-20 05:10:00,
2013-02-20 00:15:00,32.2,21.0,29.80,West,262,9.0,10.0,63,0.00,,BKN060,0.00,VWS V14.01,2013-02-20 05:15:00,
2013-02-20 00:20:00,32.1,21.3,29.81,West,280,10.0,13.0,64,0.00,,BKN060,0.00,VWS V14.01,2013-02-20 05:20:00,
2013-02-20 00:25:00,32.0,20.9,29.81,West,280,4.0,9.0,63,0.00,,BKN060,0.00,VWS V14.01,2013-02-20 05:25:00,
2013-02-20 00:30:00,31.9,20.8,29.80,NW,314,16.0,18.0,63,0.00,,BKN060,0.00,VWS V14.01,2013-02-20 05:30:00,
2013-02-20 00:35:00,31.8,20.3,29.81,WNW,296,7.0,12.0,62,0.00,,BKN060,0.00,VWS V14.01,2013-02-20 05:35:00,
2013-02-20 00:40:00,31.6,20.5,29.81,NW,305,8.0,18.0,63,0.00,,BKN060,0.00,VWS V14.01,2013-02-20 05:40:00,
2013-02-20 00:45:00,31.4,19.9,29.81,NNW,328,5.0,16.0,62,0.00,,BKN060,0.00,VWS V14.01,2013-02-20 05:45:00,
2013-02-20 00:50:00,31.3,20.2,29.81,NE,42,5.0,9.0,63,0.00,,BKN060,0.00,VWS V14.01,2013-02-20 05:50:00,
2013-02-20 00:55:00,31.0,20.3,29.81,West,269,11.0,11.0,64,0.00,,BKN060,0.00,VWS V14.01,2013-02-20 05:55:00,
2013-02-20 01:00:00,31.0,20.6,29.82,West,277,8.0,8.0,65,0.00,,BKN060,0.00,VWS V14.01,2013-02-20 06:00:00,
2013-02-20 01:05:00,30.8,20.4,29.82,NW,306,8.0,9.0,65,0.00,,BKN060,0.00,VWS V14.01,2013-02-20 06:05:00,
2013-02-20 01:10:00,30.7,20.3,29.82,WNW,293,5.0,9.0,65,0.00,,BKN060,0.00,VWS V14.01,2013-02-20 06:10:00,
2013-02-20 01:15:00,30.6,20.6,29.82,WNW,297,8.0,11.0,66,0.00,,BKN060,0.00,VWS V14.01,2013-02-20 06:15:00,
2013-02-20 01:21:00,30.4,21.1,29.82,WNW,291,4.0,7.0,68,0.00,,BKN060,0.00,VWS V14.01,2013-02-20 06:21:00,
2013-02-20 01:26:00,30.2,21.3,29.81,WNW,301,7.0,9.0,69,0.00,,BKN060,0.00,VWS V14.01,2013-02-20 06:26:00,
2013-02-20 01:31:00,30.0,21.1,29.81,NW,304,2.0,12.0,69,0.00,,BKN060,0.00,VWS V14.01,2013-02-20 06:31:00,
2013-02-20 01:36:00,29.9,21.0,29.81,WNW,299,2.0,7.0,69,0.00,,CLR,0.00,VWS V14.01,2013-02-20 06:36:00,
2013-02-20 01:41:00,29.9,20.6,29.81,WNW,297,9.0,16.0,68,0.00,,CLR,0.00,VWS V14.01,2013-02-20 06:41:00,
2013-02-20 01:46:00,29.9,20.3,29.81,NNW,328,8.0,12.0,67,0.00,,CLR,0.00,VWS V14.01,2013-02-20 06:46:00,
2013-02-20 01:51:00,29.9,19.9,29.81,West,269,13.0,17.0,66,0.00,,CLR,0.00,VWS V14.01,2013-02-20 06:51:00,
2013-02-20 01:56:00,30.0,20.0,29.81,West,278,7.0,12.0,66,0.00,,CLR,0.00,VWS V14.01,2013-02-20 06:56:00,
2013-02-20 02:01:00,29.9,19.9,29.82,WNW,285,4.0,14.0,66,0.00,,CLR,0.00,VWS V14.01,2013-02-20 07:01:00,
2013-02-20 02:06:00,29.7,20.1,29.82,WNW,294,8.0,11.0,67,0.00,,CLR,0.00,VWS V14.01,2013-02-20 07:06:00,
2013-02-20 02:11:00,29.5,20.3,29.83,West,278,3.0,7.0,68,0.00,,CLR,0.00,VWS V14.01,2013-02-20 07:11:00,
2013-02-20 02:16:00,29.5,20.3,29.83,NW,304,11.0,15.0,68,0.00,,CLR,0.00,VWS V14.01,2013-02-20 07:16:00,
2013-02-20 02:21:00,29.4,19.5,29.83,WNW,284,9.0,13.0,66,0.00,,CLR,0.00,VWS V14.01,2013-02-20 07:21:00,
2013-02-20 02:27:00,29.3,19.0,29.83,West,269,7.0,11.0,65,0.00,,CLR,0.00,VWS V14.01,2013-02-20 07:27:00,
2013-02-20 02:32:00,29.2,18.5,29.83,WNW,285,13.0,18.0,64,0.00,,CLR,0.00,VWS V14.01,2013-02-20 07:32:00,
2013-02-20 02:37:00,29.1,17.7,29.83,WNW,300,11.0,19.0,62,0.00,,CLR,0.00,VWS V14.01,2013-02-20 07:37:00,
2013-02-20 02:42:00,28.9,17.5,29.83,North,352,1.0,13.0,62,0.00,,CLR,0.00,VWS V14.01,2013-02-20 07:42:00,
2013-02-20 02:47:00,28.8,17.4,29.83,WNW,288,9.0,14.0,62,0.00,,CLR,0.00,VWS V14.01,2013-02-20 07:47:00,
2013-02-20 02:52:00,28.7,17.7,29.84,NW,316,6.0,14.0,63,0.00,,CLR,0.00,VWS V14.01,2013-02-20 07:52:00,
2013-02-20 02:57:00,28.6,17.6,29.83,WNW,301,8.0,13.0,63,0.00,,CLR,0.00,VWS V14.01,2013-02-20 07:57:00,
2013-02-20 03:05:00,28.3,18.1,29.84,WNW,292,4.0,9.0,65,0.00,,CLR,0.00,VWS V14.01,2013-02-20 08:05:00,
2013-02-20 03:10:00,28.1,18.2,29.84,West,278,1.0,8.0,66,0.00,,CLR,0.00,VWS V14.01,2013-02-20 08:10:00,
2013-02-20 03:15:00,28.0,18.5,29.84,WNW,284,1.0,6.0,67,0.00,,CLR,0.00,VWS V14.01,2013-02-20 08:15:00,
2013-02-20 03:20:00,27.8,18.3,29.84,WNW,283,0.0,2.0,67,0.00,,CLR,0.00,VWS V14.01,2013-02-20 08:20:00,
2013-02-20 03:25:00,27.7,18.2,29.84,West,263,2.0,7.0,67,0.00,,CLR,0.00,VWS V14.01,2013-02-20 08:25:00,
2013-02-20 03:30:00,27.6,17.7,29.84,West,269,8.0,12.0,66,0.00,,CLR,0.00,VWS V14.01,2013-02-20 08:30:00,
2013-02-20 03:35:00,27.6,17.7,29.84,WNW,289,4.0,8.0,66,0.00,,CLR,0.00,VWS V14.01,2013-02-20 08:35:00,
2013-02-20 03:40:00,27.6,17.7,29.84,NW,312,8.0,12.0,66,0.00,,CLR,0.00,VWS V14.01,2013-02-20 08:40:00,
2013-02-20 03:45:00,27.7,17.8,29.84,NNW,342,7.0,11.0,66,0.00,,CLR,0.00,VWS V14.01,2013-02-20 08:45:00,
2013-02-20 03:50:00,27.7,17.8,29.84,WSW,257,8.0,18.0,66,0.00,,CLR,0.00,VWS V14.01,2013-02-20 08:50:00,
2013-02-20 03:55:00,27.7,17.5,29.84,WNW,285,6.0,21.0,65,0.00,,CLR,0.00,VWS V14.01,2013-02-20 08:55:00,
2013-02-20 04:00:00,27.7,17.8,29.84,West,281,11.0,14.0,66,0.00,,CLR,0.00,VWS V14.01,2013-02-20 09:00:00,
2013-02-20 04:05:00,27.7,17.8,29.84,West,277,4.0,16.0,66,0.00,,CLR,0.00,VWS V14.01,2013-02-20 09:05:00,
2013-02-20 04:10:00,27.6,17.7,29.84,WNW,294,7.0,16.0,66,0.00,,CLR,0.00,VWS V14.01,2013-02-20 09:10:00,
2013-02-20 04:15:00,27.6,18.1,29.85,WNW,292,9.0,17.0,67,0.00,,CLR,0.00,VWS V14.01,2013-02-20 09:15:00,
2013-02-20 04:20:00,27.5,18.3,29.85,West,274,7.0,17.0,68,0.00,,CLR,0.00,VWS V14.01,2013-02-20 09:20:00,
2013-02-20 04:25:00,27.5,18.7,29.85,WNW,301,5.0,14.0,69,0.00,,CLR,0.00,VWS V14.01,2013-02-20 09:25:00,
2013-02-20 04:30:00,27.4,18.6,29.85,WNW,292,12.0,12.0,69,0.00,,CLR,0.00,VWS V14.01,2013-02-20 09:30:00,
2013-02-20 04:35:00,27.4,18.6,29.85,WNW,292,12.0,12.0,69,0.00,,CLR,0.00,VWS V14.01,2013-02-20 09:35:00,
2013-02-20 04:40:00,27.4,18.6,29.85,WNW,292,12.0,12.0,69,0.00,,CLR,0.00,VWS V14.01,2013-02-20 09:40:00,
2013-02-20 04:45:00,27.4,18.6,29.85,WNW,292,12.0,12.0,69,0.00,,CLR,0.00,VWS V14.01,2013-02-20 09:45:00,
2013-02-20 04:50:00,27.4,18.6,29.85,WNW,292,12.0,12.0,69,0.00,,CLR,0.00,VWS V14.01,2013-02-20 09:50:00,
2013-02-20 04:55:00,27.4,18.6,29.86,WNW,292,12.0,12.0,69,0.00,,CLR,0.00,VWS V14.01,2013-02-20 09:55:00,
2013-02-20 05:00:00,27.4,18.6,29.86,WNW,292,12.0,12.0,69,0.00,,CLR,0.00,VWS V14.01,2013-02-20 10:00:00,
2013-02-20 05:05:00,27.4,18.6,29.86,WNW,292,12.0,12.0,69,0.00,,OVC050,0.00,VWS V14.01,2013-02-20 10:05:00,
2013-02-20 05:10:00,27.4,18.6,29.86,WNW,292,12.0,12.0,69,0.00,,OVC050,0.00,VWS V14.01,2013-02-20 10:10:00,
2013-02-20 05:15:00,27.4,18.6,29.86,WNW,292,12.0,12.0,69,0.00,,OVC050,0.00,VWS V14.01,2013-02-20 10:15:00,
2013-02-20 05:20:00,27.4,18.6,29.86,WNW,292,12.0,12.0,69,0.00,,OVC050,0.00,VWS V14.01,2013-02-20 10:20:00,
2013-02-20 05:25:00,27.4,18.6,29.86,WNW,292,12.0,12.0,69,0.00,,OVC050,0.00,VWS V14.01,2013-02-20 10:25:00,
2013-02-20 05:30:00,27.4,18.6,29.87,WNW,292,12.0,12.0,69,0.00,,OVC050,0.00,VWS V14.01,2013-02-20 10:30:00,
2013-02-20 05:35:00,27.4,18.6,29.87,WNW,292,12.0,12.0,69,0.00,,OVC050,0.00,VWS V14.01,2013-02-20 10:35:00,
2013-02-20 05:40:00,27.4,18.6,29.87,WNW,292,12.0,12.0,69,0.00,,OVC050,0.00,VWS V14.01,2013-02-20 10:40:00,
2013-02-20 05:45:00,27.4,18.6,29.87,WNW,292,12.0,12.0,69,0.00,,OVC050,0.00,VWS V14.01,2013-02-20 10:45:00,
2013-02-20 05:50:00,27.4,18.6,29.88,WNW,292,12.0,12.0,69,0.00,,OVC050,0.00,VWS V14.01,2013-02-20 10:50:00,
2013-02-20 05:55:00,27.4,18.6,29.88,WNW,292,12.0,12.0,69,0.00,,OVC050,0.00,VWS V14.01,2013-02-20 10:55:00,
2013-02-20 06:00:00,27.4,18.6,29.88,WNW,292,12.0,12.0,69,0.00,,OVC050,0.00,VWS V14.01,2013-02-20 11:00:00,
2013-02-20 06:05:00,27.4,18.6,29.88,WNW,292,12.0,12.0,69,0.00,,CLR,0.00,VWS V14.01,2013-02-20 11:05:00,
2013-02-20 06:10:00,27.4,18.6,29.88,WNW,292,12.0,12.0,69,0.00,,CLR,0.00,VWS V14.01,2013-02-20 11:10:00,
2013-02-20 06:15:00,27.4,18.6,29.89,WNW,292,12.0,12.0,69,0.00,,CLR,0.00,VWS V14.01,2013-02-20 11:15:00,
2013-02-20 06:20:00,27.4,18.6,29.89,WNW,292,12.0,12.0,69,0.00,,CLR,0.00,VWS V14.01,2013-02-20 11:20:00,
2013-02-20 06:25:00,27.4,18.6,29.90,WNW,292,12.0,12.0,69,0.00,,CLR,0.00,VWS V14.01,2013-02-20 11:25:00,
2013-02-20 06:30:00,27.4,18.6,29.90,WNW,292,12.0,12.0,69,0.00,,CLR,0.00,VWS V14.01,2013-02-20 11:30:00,
2013-02-20 06:35:00,27.4,18.6,29.90,WNW,292,12.0,12.0,69,0.00,,CLR,0.00,VWS V14.01,2013-02-20 11:35:00,
2013-02-20 06:40:00,27.4,18.6,29.90,WNW,292,12.0,12.0,69,0.00,,CLR,0.00,VWS V14.01,2013-02-20 11:40:00,
2013-02-20 06:45:00,27.4,18.6,29.90,WNW,292,12.0,12.0,69,0.00,,CLR,0.00,VWS V14.01,2013-02-20 11:45:00,
2013-02-20 06:50:00,27.4,18.6,29.90,WNW,292,12.0,12.0,69,0.00,,CLR,0.00,VWS V14.01,2013-02-20 11:50:00,
2013-02-20 06:55:00,27.4,18.6,29.91,WNW,292,12.0,12.0,69,0.00,,CLR,0.00,VWS V14.01,2013-02-20 11:55:00,
2013-02-20 07:00:00,27.4,18.6,29.91,WNW,292,12.0,12.0,69,0.00,,CLR,0.00,VWS V14.01,2013-02-20 12:00:00,
2013-02-20 07:05:00,27.4,18.6,29.91,WNW,292,12.0,12.0,69,0.00,,BKN047,0.00,VWS V14.01,2013-02-20 12:05:00,
2013-02-20 07:10:00,27.4,18.6,29.91,WNW,292,12.0,12.0,69,0.00,,BKN047,0.00,VWS V14.01,2013-02-20 12:10:00,
2013-02-20 07:15:00,27.4,18.6,29.91,WNW,292,12.0,12.0,69,0.00,,BKN047,0.00,VWS V14.01,2013-02-20 12:15:00,
2013-02-20 07:20:00,27.4,18.6,29.92,WNW,292,12.0,12.0,69,0.00,,BKN047,0.00,VWS V14.01,2013-02-20 12:20:00,
2013-02-20 07:25:00,27.4,18.6,29.92,WNW,292,12.0,12.0,69,0.00,,BKN047,0.00,VWS V14.01,2013-02-20 12:25:00,
2013-02-20 07:30:00,27.4,18.6,29.92,WNW,292,12.0,12.0,69,0.00,,BKN047,0.00,VWS V14.01,2013-02-20 12:30:00,
2013-02-20 07:35:00,27.4,18.6,29.93,WNW,292,12.0,12.0,69,0.00,,BKN047,0.00,VWS V14.01,2013-02-20 12:35:00,
2013-02-20 07:40:00,27.4,18.6,29.93,WNW,292,12.0,12.0,69,0.00,,BKN047,0.00,VWS V14.01,2013-02-20 12:40:00,
2013-02-20 07:45:00,27.4,18.6,29.93,WNW,292,12.0,12.0,69,0.00,,BKN047,0.00,VWS V14.01,2013-02-20 12:45:00,
2013-02-20 07:50:00,24.3,14.9,29.93,WNW,293,6.0,10.0,67,0.00,,BKN047,0.00,VWS V14.01,2013-02-20 12:50:00,
2013-02-20 07:55:00,24.2,15.2,29.94,NW,309,14.0,16.0,68,0.00,,BKN047,0.00,VWS V14.01,2013-02-20 12:55:00,
2013-02-20 08:00:00,24.3,15.3,29.95,NW,317,8.0,8.0,68,0.00,,BKN047,0.00,VWS V14.01,2013-02-20 13:00:00,
2013-02-20 08:05:00,24.2,15.2,29.95,WNW,295,8.0,13.0,68,0.00,,OVC049,0.00,VWS V14.01,2013-02-20 13:05:00,
2013-02-20 08:10:00,24.0,15.3,29.95,WNW,283,17.0,19.0,69,0.00,,OVC049,0.00,VWS V14.01,2013-02-20 13:10:00,
2013-02-20 08:15:00,23.9,14.9,29.96,WNW,296,9.0,14.0,68,0.00,,OVC049,0.00,VWS V14.01,2013-02-20 13:15:00,
2013-02-20 08:20:00,23.8,14.5,29.95,West,276,8.0,17.0,67,0.00,,OVC049,0.00,VWS V14.01,2013-02-20 13:20:00,
2013-02-20 08:25:00,23.8,14.1,29.95,NW,307,7.0,8.0,66,0.00,,OVC049,0.00,VWS V14.01,2013-02-20 13:25:00,
2013-02-20 08:30:00,23.8,14.1,29.95,West,276,12.0,16.0,66,0.00,,OVC049,0.00,VWS V14.01,2013-02-20 13:30:00,
2013-02-20 08:35:00,24.1,14.4,29.96,WNW,288,6.0,11.0,66,0.00,,OVC049,0.00,VWS V14.01,2013-02-20 13:35:00,
2013-02-20 08:40:00,24.5,14.4,29.95,NNW,340,6.0,9.0,65,0.00,,OVC049,0.00,VWS V14.01,2013-02-20 13:40:00,
2013-02-20 08:45:00,24.7,14.3,29.95,WNW,295,8.0,13.0,64,0.00,,OVC049,0.00,VWS V14.01,2013-02-20 13:45:00,
2013-02-20 08:50:00,24.7,13.9,29.95,WNW,289,7.0,11.0,63,0.00,,OVC049,0.00,VWS V14.01,2013-02-20 13:50:00,
2013-02-20 08:55:00,24.7,13.2,29.95,WNW,300,17.0,17.0,61,0.00,,OVC049,0.00,VWS V14.01,2013-02-20 13:55:00,
2013-02-20 09:00:00,24.7,13.2,29.95,WNW,287,10.0,17.0,61,0.00,,OVC049,0.00,VWS V14.01,2013-02-20 14:00:00,
2013-02-20 09:05:00,24.8,12.9,29.95,WNW,303,11.0,15.0,60,0.00,,OVC048,0.00,VWS V14.01,2013-02-20 14:05:00,
2013-02-20 09:10:00,24.9,12.6,29.95,WNW,300,16.0,18.0,59,0.00,,OVC048,0.00,VWS V14.01,2013-02-20 14:10:00,
2013-02-20 09:15:00,24.8,12.9,29.96,WNW,283,14.0,24.0,60,0.00,,OVC048,0.00,VWS V14.01,2013-02-20 14:15:00,
2013-02-20 09:21:00,24.4,11.8,29.96,WNW,298,5.0,10.0,58,0.00,,OVC048,0.00,VWS V14.01,2013-02-20 14:21:00,
2013-02-20 09:26:00,24.5,11.9,29.96,WNW,287,17.0,26.0,58,0.00,,OVC048,0.00,VWS V14.01,2013-02-20 14:26:00,
2013-02-20 09:31:00,24.2,11.2,29.95,WNW,289,9.0,17.0,57,0.00,,OVC048,0.00,VWS V14.01,2013-02-20 14:31:00,
2013-02-20 09:36:00,24.4,11.0,29.95,WNW,298,8.0,22.0,56,0.00,,OVC048,0.00,VWS V14.01,2013-02-20 14:36:00,
2013-02-20 09:41:00,24.4,11.0,29.95,WNW,303,12.0,20.0,56,0.00,,OVC048,0.00,VWS V14.01,2013-02-20 14:41:00,
2013-02-20 09:46:00,25.0,11.9,29.95,WNW,295,16.0,24.0,57,0.00,,OVC048,0.00,VWS V14.01,2013-02-20 14:46:00,
2013-02-20 09:51:00,25.0,10.7,29.95,WNW,288,12.0,18.0,54,0.00,,OVC048,0.00,VWS V14.01,2013-02-20 14:51:00,
2013-02-20 09:56:00,25.3,11.4,29.95,NW,325,11.0,21.0,55,0.00,,OVC048,0.00,VWS V14.01,2013-02-20 14:56:00,
2013-02-20 10:01:00,25.2,10.9,29.95,WNW,290,9.0,18.0,54,0.00,,OVC048,0.00,VWS V14.01,2013-02-20 15:01:00,
2013-02-20 10:06:00,24.9,10.2,29.95,NW,304,15.0,18.0,53,0.00,,OVC049,0.00,VWS V14.01,2013-02-20 15:06:00,
2013-02-20 10:11:00,25.4,11.9,29.95,WNW,283,12.0,18.0,56,0.00,,OVC049,0.00,VWS V14.01,2013-02-20 15:11:00,
2013-02-20 10:16:00,25.5,11.2,29.95,WNW,284,8.0,23.0,54,0.00,,OVC049,0.00,VWS V14.01,2013-02-20 15:16:00,
2013-02-20 10:22:00,25.3,12.2,29.95,West,278,8.0,21.0,57,0.00,,OVC049,0.00,VWS V14.01,2013-02-20 15:22:00,
2013-02-20 10:27:00,25.6,12.5,29.95,WSW,255,12.0,17.0,57,0.00,,OVC049,0.00,VWS V14.01,2013-02-20 15:27:00,
2013-02-20 10:32:00,25.8,12.7,29.95,WNW,295,11.0,16.0,57,0.00,,OVC049,0.00,VWS V14.01,2013-02-20 15:32:00,
2013-02-20 10:37:00,25.5,12.8,29.95,WNW,294,10.0,17.0,58,0.00,,OVC049,0.00,VWS V14.01,2013-02-20 15:37:00,
2013-02-20 10:42:00,25.7,13.4,29.95,WSW,256,7.0,13.0,59,0.00,,OVC049,0.00,VWS V14.01,2013-02-20 15:42:00,
2013-02-20 10:47:00,25.8,13.5,29.95,WNW,285,11.0,19.0,59,0.00,,OVC049,0.00,VWS V14.01,2013-02-20 15:47:00,
2013-02-20 10:52:00,26.0,12.9,29.95,WNW,283,14.0,22.0,57,0.00,,OVC049,0.00,VWS V14.01,2013-02-20 15:52:00,
2013-02-20 10:57:00,26.2,12.7,29.95,WNW,295,13.0,21.0,56,0.00,,OVC049,0.00,VWS V14.01,2013-02-20 15:57:00,
2013-02-20 11:02:00,26.1,13.0,29.95,WNW,284,11.0,16.0,57,0.00,,BKN047,0.00,VWS V14.01,2013-02-20 16:02:00,
2013-02-20 11:07:00,25.9,12.4,29.95,WNW,300,5.0,17.0,56,0.00,,BKN047,0.00,VWS V14.01,2013-02-20 16:07:00,
2013-02-20 11:12:00,25.9,12.4,29.95,NW,314,7.0,16.0,56,0.00,,BKN047,0.00,VWS V14.01,2013-02-20 16:12:00,
2013-02-20 11:17:00,25.8,12.7,29.95,WNW,303,13.0,18.0,57,0.00,,BKN047,0.00,VWS V14.01,2013-02-20 16:17:00,
2013-02-20 11:22:00,26.2,13.4,29.95,NW,317,6.0,22.0,58,0.00,,BKN047,0.00,VWS V14.01,2013-02-20 16:22:00,
2013-02-20 11:28:00,26.3,13.1,29.96,WNW,293,6.0,18.0,57,0.00,,BKN047,0.00,VWS V14.01,2013-02-20 16:28:00,
2013-02-20 11:33:00,26.4,13.2,29.96,WNW,302,13.0,21.0,57,0.00,,BKN047,0.00,VWS V14.01,2013-02-20 16:33:00,
2013-02-20 11:38:00,26.1,13.0,29.95,WNW,302,19.0,23.0,57,0.00,,BKN047,0.00,VWS V14.01,2013-02-20 16:38:00,
2013-02-20 11:43:00,25.9,12.4,29.95,WNW,298,12.0,25.0,56,0.00,,BKN047,0.00,VWS V14.01,2013-02-20 16:43:00,
2013-02-20 11:48:00,26.3,12.8,29.95,West,273,11.0,14.0,56,0.00,,BKN047,0.00,VWS V14.01,2013-02-20 16:48:00,
2013-02-20 11:53:00,25.9,12.8,29.95,WNW,284,8.0,13.0,57,0.00,,BKN047,0.00,VWS V14.01,2013-02-20 16:53:00,
2013-02-20 11:58:00,26.1,14.1,29.95,WSW,255,17.0,17.0,60,0.00,,BKN047,0.00,VWS V14.01,2013-02-20 16:58:00,
2013-02-20 12:03:00,26.3,14.7,29.95,WNW,293,6.0,19.0,61,0.00,,BKN047,0.00,VWS V14.01,2013-02-20 17:03:00,
2013-02-20 12:08:00,26.1,13.8,29.95,WNW,287,7.0,21.0,59,0.00,,BKN047,0.00,VWS V14.01,2013-02-20 17:08:00,
2013-02-20 12:13:00,26.7,15.1,29.95,NW,307,12.0,14.0,61,0.00,,BKN047,0.00,VWS V14.01,2013-02-20 17:13:00,
2013-02-20 12:18:00,26.5,14.5,29.95,West,278,9.0,14.0,60,0.00,,BKN047,0.00,VWS V14.01,2013-02-20 17:18:00,
2013-02-20 12:23:00,27.5,15.8,29.95,WNW,283,7.0,20.0,61,0.00,,BKN047,0.00,VWS V14.01,2013-02-20 17:23:00,
2013-02-20 12:28:00,26.8,14.4,29.95,WSW,257,14.0,15.0,59,0.00,,BKN047,0.00,VWS V14.01,2013-02-20 17:28:00,
2013-02-20 12:33:00,26.3,14.3,29.95,West,269,8.0,14.0,60,0.00,,BKN047,0.00,VWS V14.01,2013-02-20 17:33:00,
2013-02-20 12:38:00,25.9,13.2,29.95,WNW,300,10.0,17.0,58,0.00,,BKN047,0.00,VWS V14.01,2013-02-20 17:38:00,
2013-02-20 12:43:00,25.6,13.3,29.95,West,276,9.0,19.0,59,0.00,,BKN047,0.00,VWS V14.01,2013-02-20 17:43:00,
2013-02-20 12:49:00,25.6,14.0,29.95,WNW,303,10.0,18.0,61,0.00,,BKN047,0.00,VWS V14.01,2013-02-20 17:49:00,
2013-02-20 12:54:00,25.6,13.7,29.94,WNW,294,10.0,19.0,60,0.00,,BKN047,0.00,VWS V14.01,2013-02-20 17:54:00,
2013-02-20 12:59:00,25.7,13.8,29.94,WNW,293,12.0,17.0,60,0.00,,BKN047,0.00,VWS V14.01,2013-02-20 17:59:00,
2013-02-20 13:04:00,25.9,13.9,29.94,West,271,7.0,16.0,60,0.00,,OVC050,0.00,VWS V14.01,2013-02-20 18:04:00,
2013-02-20 13:09:00,26.1,14.5,29.94,WSW,245,14.0,17.0,61,0.00,,OVC050,0.00,VWS V14.01,2013-02-20 18:09:00,
2013-02-20 13:14:00,26.4,14.4,29.94,West,269,8.0,12.0,60,0.00,,OVC050,0.00,VWS V14.01,2013-02-20 18:14:00,
2013-02-20 13:19:00,26.5,15.3,29.94,WNW,295,13.0,17.0,62,0.00,,OVC050,0.00,VWS V14.01,2013-02-20 18:19:00,
2013-02-20 13:24:00,26.1,13.8,29.94,West,278,16.0,21.0,59,0.00,,OVC050,0.00,VWS V14.01,2013-02-20 18:24:00,
2013-02-20 13:29:00,25.9,12.8,29.94,WNW,296,7.0,18.0,57,0.00,,OVC050,0.00,VWS V14.01,2013-02-20 18:29:00,
2013-02-20 13:34:00,26.2,13.8,29.95,WNW,283,10.0,16.0,59,0.00,,OVC050,0.00,VWS V14.01,2013-02-20 18:34:00,
2013-02-20 13:39:00,26.4,13.6,29.94,WNW,285,10.0,17.0,58,0.00,,OVC050,0.00,VWS V14.01,2013-02-20 18:39:00,
2013-02-20 13:44:00,26.3,14.7,29.95,WNW,283,8.0,13.0,61,0.00,,OVC050,0.00,VWS V14.01,2013-02-20 18:44:00,
2013-02-20 13:49:00,26.5,14.1,29.95,WNW,295,6.0,16.0,59,0.00,,OVC050,0.00,VWS V14.01,2013-02-20 18:49:00,
2013-02-20 13:54:00,27.0,13.8,29.95,West,266,11.0,19.0,57,0.00,,OVC050,0.00,VWS V14.01,2013-02-20 18:54:00,
2013-02-20 13:59:00,27.1,14.3,29.95,SW,228,10.0,18.0,58,0.00,,OVC050,0.00,VWS V14.01,2013-02-20 18:59:00,
2013-02-20 14:04:00,27.0,13.8,29.95,West,266,9.0,19.0,57,0.00,,OVC050,0.00,VWS V14.01,2013-02-20 19:04:00,
2013-02-20 14:09:00,27.0,13.0,29.95,West,267,10.0,20.0,55,0.00,,OVC050,0.00,VWS V14.01,2013-02-20 19:09:00,
2013-02-20 14:14:00,26.6,13.0,29.96,NW,307,13.0,21.0,56,0.00,,OVC050,0.00,VWS V14.01,2013-02-20 19:14:00,
2013-02-20 14:19:00,26.2,13.1,29.96,West,280,10.0,17.0,57,0.00,,OVC050,0.00,VWS V14.01,2013-02-20 19:19:00,
2013-02-20 14:24:00,26.0,13.3,29.96,NW,313,9.0,19.0,58,0.00,,OVC050,0.00,VWS V14.01,2013-02-20 19:24:00,
2013-02-20 14:29:00,26.0,12.5,29.96,WNW,297,9.0,19.0,56,0.00,,OVC050,0.00,VWS V14.01,2013-02-20 19:29:00,
2013-02-20 14:34:00,26.1,12.6,29.96,West,263,8.0,20.0,56,0.00,,OVC050,0.00,VWS V14.01,2013-02-20 19:34:00,
2013-02-20 14:40:00,26.3,13.6,29.96,West,269,10.0,24.0,58,0.00,,OVC050,0.00,VWS V14.01,2013-02-20 19:40:00,
2013-02-20 14:44:00,26.3,14.3,29.96,WNW,284,15.0,16.0,60,0.00,,OVC050,0.00,VWS V14.01,2013-02-20 19:44:00,
2013-02-20 14:50:00,26.8,15.2,29.96,WNW,301,8.0,16.0,61,0.00,,OVC050,0.00,VWS V14.01,2013-02-20 19:50:00,
2013-02-20 14:55:00,26.7,15.1,29.96,SW,236,8.0,16.0,61,0.00,,OVC050,0.00,VWS V14.01,2013-02-20 19:55:00,
2013-02-20 15:00:00,26.6,15.0,29.97,WNW,289,3.0,18.0,61,0.00,,OVC050,0.00,VWS V14.01,2013-02-20 20:00:00,
2013-02-20 15:05:00,26.7,14.3,29.97,WSW,239,15.0,17.0,59,0.00,,BKN060,0.00,VWS V14.01,2013-02-20 20:05:00,
2013-02-20 15:10:00,26.3,12.8,29.97,WNW,291,15.0,20.0,56,0.00,,BKN060,0.00,VWS V14.01,2013-02-20 20:10:00,
2013-02-20 15:15:00,26.0,13.3,29.97,NW,305,7.0,18.0,58,0.00,,BKN060,0.00,VWS V14.01,2013-02-20 20:15:00,
2013-02-20 15:20:00,26.1,13.8,29.98,NW,308,8.0,16.0,59,0.00,,BKN060,0.00,VWS V14.01,2013-02-20 20:20:00,
2013-02-20 15:25:00,26.1,13.4,29.98,WNW,298,8.0,19.0,58,0.00,,BKN060,0.00,VWS V14.01,2013-02-20 20:25:00,
2013-02-20 15:30:00,26.0,12.1,29.98,NW,315,10.0,17.0,55,0.00,,BKN060,0.00,VWS V14.01,2013-02-20 20:30:00,
2013-02-20 15:35:00,26.2,12.2,29.98,West,273,13.0,15.0,55,0.00,,BKN060,0.00,VWS V14.01,2013-02-20 20:35:00,
2013-02-20 15:40:00,26.6,12.6,29.98,WNW,288,7.0,24.0,55,0.00,,BKN060,0.00,VWS V14.01,2013-02-20 20:40:00,
2013-02-20 15:45:00,26.3,12.8,29.98,WNW,295,15.0,21.0,56,0.00,,BKN060,0.00,VWS V14.01,2013-02-20 20:45:00,
2013-02-20 15:50:00,26.1,12.6,29.99,WNW,302,6.0,18.0,56,0.00,,BKN060,0.00,VWS V14.01,2013-02-20 20:50:00,
2013-02-20 15:55:00,25.8,11.9,29.98,NW,325,10.0,21.0,55,0.00,,BKN060,0.00,VWS V14.01,2013-02-20 20:55:00,
2013-02-20 16:00:00,25.8,12.7,29.99,NW,315,12.0,21.0,57,0.00,,BKN060,0.00,VWS V14.01,2013-02-20 21:00:00,
2013-02-20 16:05:00,26.1,12.6,29.99,WNW,297,14.0,24.0,56,0.00,,BKN060,0.00,VWS V14.01,2013-02-20 21:05:00,
2013-02-20 16:10:00,26.1,12.6,29.99,WNW,293,15.0,20.0,56,0.00,,BKN060,0.00,VWS V14.01,2013-02-20 21:10:00,
2013-02-20 16:15:00,25.9,12.4,29.99,NW,307,6.0,18.0,56,0.00,,BKN060,0.00,VWS V14.01,2013-02-20 21:15:00,
2013-02-20 16:20:00,25.9,12.0,30.00,WNW,297,16.0,27.0,55,0.00,,BKN060,0.00,VWS V14.01,2013-02-20 21:20:00,
2013-02-20 16:25:00,26.2,13.1,30.00,West,280,8.0,17.0,57,0.00,,BKN060,0.00,VWS V14.01,2013-02-20 21:25:00,
2013-02-20 16:30:00,26.0,13.3,29.99,West,278,8.0,17.0,58,0.00,,BKN060,0.00,VWS V14.01,2013-02-20 21:30:00,
2013-02-20 16:35:00,25.7,13.4,30.00,WNW,295,7.0,18.0,59,0.00,,OVC055,0.00,VWS V14.01,2013-02-20 21:35:00,
2013-02-20 16:40:00,25.8,13.5,30.00,WNW,302,8.0,8.0,59,0.00,,OVC055,0.00,VWS V14.01,2013-02-20 21:40:00,
2013-02-20 16:45:00,25.6,13.3,30.00,West,271,14.0,22.0,59,0.00,,OVC055,0.00,VWS V14.01,2013-02-20 21:45:00,
2013-02-20 16:50:00,25.3,13.4,30.00,NW,315,10.0,17.0,60,0.00,,OVC055,0.00,VWS V14.01,2013-02-20 21:50:00,
2013-02-20 16:55:00,25.2,13.3,30.00,North,1,7.0,17.0,60,0.00,,OVC055,0.00,VWS V14.01,2013-02-20 21:55:00,
2013-02-20 17:00:00,25.2,13.3,30.00,WSW,253,11.0,19.0,60,0.00,,OVC055,0.00,VWS V14.01,2013-02-20 22:00:00,
2013-02-20 17:05:00,25.1,12.8,30.00,WNW,295,11.0,20.0,59,0.00,,OVC055,0.00,VWS V14.01,2013-02-20 22:05:00,
2013-02-20 17:10:00,25.1,13.6,30.01,West,279,10.0,14.0,61,0.00,,OVC055,0.00,VWS V14.01,2013-02-20 22:10:00,
2013-02-20 17:15:00,25.0,13.1,30.01,West,278,10.0,10.0,60,0.00,,OVC055,0.00,VWS V14.01,2013-02-20 22:15:00,
2013-02-20 17:20:00,24.9,12.2,30.01,West,280,10.0,23.0,58,0.00,,OVC055,0.00,VWS V14.01,2013-02-20 22:20:00,
2013-02-20 17:25:00,24.8,12.9,30.01,WNW,298,8.0,14.0,60,0.00,,OVC055,0.00,VWS V14.01,2013-02-20 22:25:00,
2013-02-20 17:30:00,24.8,12.5,30.01,WNW,297,12.0,22.0,59,0.00,,OVC055,0.00,VWS V14.01,2013-02-20 22:30:00,
2013-02-20 17:35:00,24.8,12.5,30.01,NW,304,6.0,18.0,59,0.00,,OVC060,0.00,VWS V14.01,2013-02-20 22:35:00,
2013-02-20 17:40:00,24.7,13.2,30.02,WNW,285,2.0,13.0,61,0.00,,OVC060,0.00,VWS V14.01,2013-02-20 22:40:00,
2013-02-20 17:45:00,24.6,13.1,30.02,WNW,295,12.0,15.0,61,0.00,,OVC060,0.00,VWS V14.01,2013-02-20 22:45:00,
2013-02-20 17:50:00,24.6,13.1,30.02,WNW,290,8.0,14.0,61,0.00,,OVC060,0.00,VWS V14.01,2013-02-20 22:50:00,
2013-02-20 17:55:00,24.6,12.7,30.02,West,274,5.0,15.0,60,0.00,,OVC060,0.00,VWS V14.01,2013-02-20 22:55:00,
2013-02-20 18:00:00,24.5,13.0,30.03,NW,311,7.0,15.0,61,0.00,,OVC060,0.00,VWS V14.01,2013-02-20 23:00:00,
2013-02-20 18:05:00,24.6,13.1,30.03,NNW,331,10.0,10.0,61,0.00,,BKN065,0.00,VWS V14.01,2013-02-20 23:05:00,
2013-02-20 18:10:00,24.7,12.8,30.03,West,273,9.0,9.0,60,0.00,,BKN065,0.00,VWS V14.01,2013-02-20 23:10:00,
2013-02-20 18:15:00,24.8,12.5,30.03,West,281,12.0,20.0,59,0.00,,BKN065,0.00,VWS V14.01,2013-02-20 23:15:00,
2013-02-20 18:20:00,24.8,12.5,30.04,NW,322,5.0,9.0,59,0.00,,BKN065,0.00,VWS V14.01,2013-02-20 23:20:00,
2013-02-20 18:25:00,24.8,12.5,30.04,NW,312,9.0,10.0,59,0.00,,BKN065,0.00,VWS V14.01,2013-02-20 23:25:00,
2013-02-20 18:30:00,24.8,12.5,30.04,NW,311,12.0,12.0,59,0.00,,BKN065,0.00,VWS V14.01,2013-02-20 23:30:00,
2013-02-20 18:35:00,24.7,13.2,30.04,NW,311,11.0,14.0,61,0.00,,BKN065,0.00,VWS V14.01,2013-02-20 23:35:00,
2013-02-20 18:40:00,24.6,13.4,30.04,WNW,297,8.0,16.0,62,0.00,,BKN065,0.00,VWS V14.01,2013-02-20 23:40:00,
2013-02-20 18:45:00,24.5,13.4,30.04,NNW,347,7.0,10.0,62,0.00,,BKN065,0.00,VWS V14.01,2013-02-20 23:45:00,
2013-02-20 18:50:00,24.4,13.3,30.04,WNW,296,5.0,12.0,62,0.00,,BKN065,0.00,VWS V14.01,2013-02-20 23:50:00,
2013-02-20 18:55:00,24.4,13.3,30.04,WNW,302,11.0,15.0,62,0.00,,BKN065,0.00,VWS V14.01,2013-02-20 23:55:00,
2013-02-20 19:01:00,24.4,12.9,30.04,WNW,297,11.0,14.0,61,0.00,,BKN065,0.00,VWS V14.01,2013-02-21 00:01:00,
2013-02-20 19:06:00,24.3,12.4,30.03,WNW,293,8.0,16.0,60,0.00,,FEW041,0.00,VWS V14.01,2013-02-21 00:06:00,
2013-02-20 19:11:00,24.2,12.7,30.03,WNW,296,13.0,20.0,61,0.00,,FEW041,0.00,VWS V14.01,2013-02-21 00:11:00,
2013-02-20 19:16:00,24.1,12.6,30.04,NW,314,12.0,21.0,61,0.00,,FEW041,0.00,VWS V14.01,2013-02-21 00:16:00,
2013-02-20 19:21:00,24.0,12.5,30.04,WNW,288,9.0,16.0,61,0.00,,FEW041,0.00,VWS V14.01,2013-02-21 00:21:00,
2013-02-20 19:26:00,23.9,12.8,30.05,WNW,287,13.0,13.0,62,0.00,,FEW041,0.00,VWS V14.01,2013-02-21 00:26:00,
2013-02-20 19:31:00,23.7,13.0,30.05,West,266,8.0,12.0,63,0.00,,FEW041,0.00,VWS V14.01,2013-02-21 00:31:00,
2013-02-20 19:36:00,23.6,12.9,30.05,WNW,285,12.0,15.0,63,0.00,,FEW041,0.00,VWS V14.01,2013-02-21 00:36:00,
2013-02-20 19:41:00,23.6,12.9,30.06,WNW,293,6.0,10.0,63,0.00,,FEW041,0.00,VWS V14.01,2013-02-21 00:41:00,
2013-02-20 19:46:00,23.5,13.1,30.06,WNW,301,10.0,12.0,64,0.00,,FEW041,0.00,VWS V14.01,2013-02-21 00:46:00,
2013-02-20 19:51:00,23.6,12.5,30.06,WNW,298,9.0,15.0,62,0.00,,FEW041,0.00,VWS V14.01,2013-02-21 00:51:00,
2013-02-20 19:56:00,23.6,12.5,30.06,WNW,300,5.0,14.0,62,0.00,,FEW041,0.00,VWS V14.01,2013-02-21 00:56:00,
2013-02-20 20:01:00,23.6,12.5,30.06,WNW,302,5.0,17.0,62,0.00,,FEW041,0.00,VWS V14.01,2013-02-21 01:01:00,
2013-02-20 20:06:00,23.5,12.4,30.06,WNW,298,13.0,15.0,62,0.00,,CLR,0.00,VWS V14.01,2013-02-21 01:06:00,
2013-02-20 20:11:00,23.5,12.8,30.05,WNW,301,13.0,14.0,63,0.00,,CLR,0.00,VWS V14.01,2013-02-21 01:11:00,
2013-02-20 20:16:00,23.4,12.7,30.05,WNW,299,11.0,16.0,63,0.00,,CLR,0.00,VWS V14.01,2013-02-21 01:16:00,
2013-02-20 20:21:00,23.4,12.3,30.06,NW,313,8.0,9.0,62,0.00,,CLR,0.00,VWS V14.01,2013-02-21 01:21:00,
2013-02-20 20:26:00,23.4,12.3,30.05,West,281,15.0,15.0,62,0.00,,CLR,0.00,VWS V14.01,2013-02-21 01:26:00,
2013-02-20 20:31:00,23.3,12.2,30.06,NNW,332,9.0,13.0,62,0.00,,CLR,0.00,VWS V14.01,2013-02-21 01:31:00,
2013-02-20 20:36:00,23.2,11.8,30.05,West,266,7.0,15.0,61,0.00,,CLR,0.00,VWS V14.01,2013-02-21 01:36:00,
2013-02-20 20:41:00,23.1,11.7,30.05,West,278,7.0,15.0,61,0.00,,CLR,0.00,VWS V14.01,2013-02-21 01:41:00,
2013-02-20 20:46:00,23.0,11.6,30.05,WNW,299,12.0,12.0,61,0.00,,CLR,0.00,VWS V14.01,2013-02-21 01:46:00,
2013-02-20 20:51:00,22.9,11.5,30.05,WNW,284,8.0,12.0,61,0.00,,CLR,0.00,VWS V14.01,2013-02-21 01:51:00,
2013-02-20 20:56:00,22.8,11.4,30.06,NW,315,10.0,19.0,61,0.00,,CLR,0.00,VWS V14.01,2013-02-21 01:56:00,
2013-02-20 21:01:00,22.8,11.4,30.05,West,276,8.0,14.0,61,0.00,,CLR,0.00,VWS V14.01,2013-02-21 02:01:00,
2013-02-20 21:06:00,22.7,11.3,30.05,NW,311,3.0,12.0,61,0.00,,CLR,0.00,VWS V14.01,2013-02-21 02:06:00,
2013-02-20 21:11:00,22.6,11.2,30.05,West,278,7.0,13.0,61,0.00,,CLR,0.00,VWS V14.01,2013-02-21 02:11:00,
2013-02-20 21:16:00,22.5,11.1,30.05,NW,312,4.0,9.0,61,0.00,,CLR,0.00,VWS V14.01,2013-02-21 02:16:00,
2013-02-20 21:21:00,22.3,11.3,30.05,WNW,290,9.0,12.0,62,0.00,,CLR,0.00,VWS V14.01,2013-02-21 02:21:00,
2013-02-20 21:27:00,22.3,11.3,30.05,WSW,249,2.0,6.0,62,0.00,,CLR,0.00,VWS V14.01,2013-02-21 02:27:00,
2013-02-20 21:32:00,22.1,11.1,30.06,West,280,3.0,5.0,62,0.00,,CLR,0.00,VWS V14.01,2013-02-21 02:32:00,
2013-02-20 21:37:00,22.1,11.1,30.07,WNW,295,4.0,10.0,62,0.00,,CLR,0.00,VWS V14.01,2013-02-21 02:37:00,
2013-02-20 21:42:00,22.0,11.0,30.07,NW,307,6.0,11.0,62,0.00,,CLR,0.00,VWS V14.01,2013-02-21 02:42:00,
2013-02-20 21:47:00,22.0,11.4,30.06,West,281,7.0,11.0,63,0.00,,CLR,0.00,VWS V14.01,2013-02-21 02:47:00,
2013-02-20 21:52:00,22.0,11.4,30.07,WNW,301,8.0,18.0,63,0.00,,CLR,0.00,VWS V14.01,2013-02-21 02:52:00,
2013-02-20 21:57:00,22.1,11.4,30.07,WNW,288,8.0,14.0,63,0.00,,CLR,0.00,VWS V14.01,2013-02-21 02:57:00,
2013-02-20 22:02:00,22.1,11.1,30.07,WNW,301,18.0,19.0,62,0.00,,CLR,0.00,VWS V14.01,2013-02-21 03:02:00,
2013-02-20 22:07:00,22.1,11.4,30.08,WNW,301,9.0,11.0,63,0.00,,CLR,0.00,VWS V14.01,2013-02-21 03:07:00,
2013-02-20 22:12:00,22.1,11.4,30.08,NW,307,7.0,13.0,63,0.00,,CLR,0.00,VWS V14.01,2013-02-21 03:12:00,
2013-02-20 22:18:00,22.0,11.4,30.08,WNW,288,3.0,11.0,63,0.00,,CLR,0.00,VWS V14.01,2013-02-21 03:18:00,
2013-02-20 22:23:00,22.0,11.4,30.08,WNW,303,7.0,13.0,63,0.00,,CLR,0.00,VWS V14.01,2013-02-21 03:23:00,
2013-02-20 22:28:00,22.0,11.4,30.08,WNW,294,6.0,15.0,63,0.00,,CLR,0.00,VWS V14.01,2013-02-21 03:28:00,
2013-02-20 22:33:00,22.0,11.7,30.08,WNW,300,4.0,17.0,64,0.00,,CLR,0.00,VWS V14.01,2013-02-21 03:33:00,
2013-02-20 22:38:00,22.0,11.4,30.08,West,269,9.0,17.0,63,0.00,,CLR,0.00,VWS V14.01,2013-02-21 03:38:00,
2013-02-20 22:43:00,22.0,11.7,30.08,WNW,298,6.0,14.0,64,0.00,,CLR,0.00,VWS V14.01,2013-02-21 03:43:00,
2013-02-20 22:48:00,21.9,11.6,30.08,WNW,300,14.0,22.0,64,0.00,,CLR,0.00,VWS V14.01,2013-02-21 03:48:00,
2013-02-20 22:53:00,21.8,11.5,30.08,NNW,338,5.0,14.0,64,0.00,,CLR,0.00,VWS V14.01,2013-02-21 03:53:00,
2013-02-20 22:58:00,21.8,11.5,30.07,NW,307,11.0,16.0,64,0.00,,CLR,0.00,VWS V14.01,2013-02-21 03:58:00,
2013-02-20 23:03:00,21.6,11.7,30.07,West,281,9.0,17.0,65,0.00,,CLR,0.00,VWS V14.01,2013-02-21 04:03:00,
2013-02-20 23:08:00,21.6,11.7,30.08,WNW,299,7.0,13.0,65,0.00,,CLR,0.00,VWS V14.01,2013-02-21 04:08:00,
2013-02-20 23:14:00,21.5,11.6,30.08,WNW,294,3.0,12.0,65,0.00,,CLR,0.00,VWS V14.01,2013-02-21 04:14:00,
2013-02-20 23:19:00,21.4,11.8,30.08,WNW,285,6.0,13.0,66,0.00,,CLR,0.00,VWS V14.01,2013-02-21 04:19:00,
2013-02-20 23:24:00,21.4,11.8,30.07,WNW,300,9.0,13.0,66,0.00,,CLR,0.00,VWS V14.01,2013-02-21 04:24:00,
2013-02-20 23:29:00,21.3,11.7,30.07,West,267,6.0,13.0,66,0.00,,CLR,0.00,VWS V14.01,2013-02-21 04:29:00,
2013-02-20 23:34:00,21.2,11.6,30.08,NW,305,6.0,11.0,66,0.00,,CLR,0.00,VWS V14.01,2013-02-21 04:34:00,
2013-02-20 23:39:00,21.2,11.6,30.07,WNW,294,4.0,14.0,66,0.00,,CLR,0.00,VWS V14.01,2013-02-21 04:39:00,
2013-02-20 23:44:00,21.0,11.8,30.08,WSW,255,4.0,7.0,67,0.00,,CLR,0.00,VWS V14.01,2013-02-21 04:44:00,
2013-02-20 23:49:00,20.9,11.7,30.08,NW,316,6.0,8.0,67,0.00,,CLR,0.00,VWS V14.01,2013-02-21 04:49:00,
2013-02-20 23:54:00,20.9,12.0,30.08,West,276,4.0,10.0,68,0.00,,CLR,0.00,VWS V14.01,2013-02-21 04:54:00,
2013-02-20 23:59:00,20.9,11.7,30.08,West,274,6.0,13.0,67,0.00,,CLR,0.00,VWS V14.01,2013-02-21 04:59:00,